메인 페이지
METAR-TAF:

METAR-TAF

공항 :

Joplin Regional Airport

Joplin, 미주리, 미국

위도: 37-09-22N, 경도: 094-30-02W, 고도: 299m

현재 날씨관측

예보는 15분 전, 16:33시(UTC)에 발표되었습니다.
13kt, 순간 최대 풍속 20kt
온도 9°C
습도 81%
기압 1011 hPa
시정: 14.5km
고도 1500ft 상공 구름 많음
고도 7000ft 상공 구름 많음

METAR: KJLN 191633Z 18013G20KT 9SM BKN015 BKN070 09/06 A2985 RMK AO2 T00940061

시각: 10:48 (16:48 UTC)

예보

예보는 5 시간 28분 전, 11:20시(UTC)에 발표되었습니다.
예보 대상 시간: 19일 12시부터 20일 12시까지 (UTC)
7kt
시정: 8.0km
고도 15000ft 상공 구름 많음
박무
일시적
19일 12시부터 19일 14시까지 (UTC)
시정: 3.2km
박무
19일 1500시부터 (UTC)
남남서15kt, 순간 최대 풍속 20kt
시정: 10km
고도 2000ft 상공 구름 보통
고도 4000ft 상공 흐림
19일 1800시부터 (UTC)
남남서15kt, 순간 최대 풍속 20kt
시정: 10km
고도 2500ft 상공 흐림
20일 0000시부터 (UTC)
서남서10kt
시정: 4.8km
고도 700ft 상공 흐림
약한비
20일 0500시부터 (UTC)
북서10kt
시정: 6.4km
고도 1500ft 상공 흐림
약한비, 박무

TAF: KJLN 191120Z 1912/2012 17007KT 5SM BR BKN150 TEMPO 1912/1914 2SM BR FM191500 21015G20KT P6SM SCT020 OVC040 FM191800 20015G20KT P6SM OVC025 FM200000 24010KT 3SM -RA OVC007 FM200500 32010KT 4SM -RA BR OVC015

4,000개 이상의 공항 관측 자료 및 예보 (METAR 및 TAF 보고).

지도상에서 검색 가능한 기상관측소가 노란 점과 빨간 점으로 표시되어 있습니다.

기상관측소 명을 보려면 표시 위로 마우스를 이동하세요.

날씨 관측과 예보를 보려면 클릭하세요.

지도 변경 : 확대하려면 엑스 표시가 있는 녹색 버튼, 축소하려면 빼기 표시가 있는 녹색 버튼, 다음 페이지의 지도를 보려면 녹색 화살표를 클릭하세요.


METAR-TAF: